EBCI - Charleroi/Gosselies, Belgium
Distance de la station: NE 18km
Mise à jour: 24/09/2020 13:20
quelques nuages
quelques nuages
 Wind from SSO
Vent: SSO 33 km/h
Température: 15°C
Point de rosée: 7°C
Humidité: 59%
Baromètre: 1003 hPa
Ciel: quelques nuages
Visibilité: 10 km
Détails du ciel: quelques nuages 1006 m
2020/09/24 11:20 EBCI 241120Z 20018KT 170V230 9999 FEW033 15/07 Q1003 NOSIG
EBFS - Florennes, Belgium
Distance de la station: ESE 31km
Mise à jour: 24/09/2020 13:25
partiellement nuageux
partiellement nuageux
 Wind from SSO
Vent: SSO 30 km/h
Température: 14°C
Point de rosée: 7°C
Humidité: 63%
Baromètre: 1004 hPa
Ciel: partiellement nuageux
Visibilité: 10 km
Détails du ciel: quelques nuages 853 m
partiellement nuageux 7620 m
2020/09/24 11:25 EBFS 241125Z 20016KT 9999 FEW028 SCT250 14/07 Q1004 BLU BLU
EBCV - Chievres, Belgium
Distance de la station: NO 40km
Mise à jour: 24/09/2020 13:25
principalement nuageux
principalement nuageux
 Wind from SSO
Vent: SSO 31 km/h
Température: 17°C
Point de rosée: 9°C
Humidité: 59%
Baromètre: 1002 hPa
Ciel: principalement nuageux
Visibilité: 10 km
Détails du ciel: partiellement nuageux 975 m
principalement nuageux 4877 m
2020/09/24 11:25 EBCV 241125Z AUTO 20017KT 9999 SCT032/// BKN160/// 17/09 Q1002 BLU
 
EBBE - Beauvechain, Belgium
Distance de la station: NE 57km
Mise à jour: 24/09/2020 13:25
partiellement nuageux
partiellement nuageux
 Wind from SSO
Vent: SSO 35 km/h, Rafale: 54 km/h
Température: 16°C
Point de rosée: 8°C
Humidité: 59%
Baromètre: 1003 hPa
Ciel: partiellement nuageux
Visibilité: 10 km
Détails du ciel: quelques nuages 914 m
partiellement nuageux 5791 m
2020/09/24 11:25 EBBE 241125Z 20019G29KT 9999 FEW030 SCT190 16/08 Q1003 BLU BLU
EBBR - Brussels National, Belgium
Distance de la station: NNE 63km
Mise à jour: 24/09/2020 13:20
quelques nuages
quelques nuages
 Wind from SSO
Vent: SSO 28 km/h
Température: 17°C
Point de rosée: 9°C
Humidité: 59%
Baromètre: 1002 hPa
Ciel: quelques nuages
Visibilité: 10 km
Détails du ciel: quelques nuages 1036 m
2020/09/24 11:20 EBBR 241120Z 20015KT 9999 FEW034 17/09 Q1002 TEMPO 20015G25KT
LFQI - Cambrai/Epinoy, France
Distance de la station: O 82km
Mise à jour: 29/06/2012 12:30
NOT Current

 Wind from SO
Vent: SO 17 km/h
Température: 18°C
Point de rosée: 14°C
Humidité: 78%
Baromètre: 1009 hPa
2012/06/29 10:30 LFQI 291030Z AUTO 22009KT //// // ///////// 18/14 Q1009
 
LFQQ - Lille/Lesquin, France
Distance de la station: ONO 86km
Mise à jour: 24/09/2020 13:30
Thunderstorm
Thunderstorm
 Wind from SSO
Vent: SSO 31 km/h
Température: 16°C
Point de rosée: 10°C
Humidité: 68%
Baromètre: 1001 hPa
Ciel: Thunderstorm
Visibilité: 10 km
Détails du ciel: principalement nuageux 914 m
principalement nuageux 1219 m
couvert 1524 m
2020/09/24 11:30 LFQQ 241130Z AUTO 20017KT 9999 BKN030/// BKN040/// OVC050/// ///CB 16/10 Q1001 TEMPO 21020G30KT 3000 SHRA
EBLG - Bierset/Liege, Belgium
Distance de la station: ENE 89km
Mise à jour: 24/09/2020 13:20
quelques nuages
quelques nuages
 Wind from SSO
Vent: SSO 30 km/h
Température: 16°C
Point de rosée: 6°C
Humidité: 52%
Baromètre: 1004 hPa
Ciel: quelques nuages
Visibilité: 10 km
Détails du ciel: quelques nuages 1158 m
2020/09/24 11:20 EBLG 241120Z 21016KT 9999 FEW038 16/06 Q1004 TEMPO 21018G28KT
EBDT - Schaffen, Belgium
Distance de la station: NE 93km
Mise à jour: 24/09/2020 13:25
quelques nuages
quelques nuages
 Wind from SSO
Vent: SSO 24 km/h, Rafale: 48 km/h
Température: 17°C
Point de rosée: 7°C
Humidité: 52%
Baromètre: 1003 hPa
Ciel: quelques nuages
Visibilité: 10 km
Détails du ciel: quelques nuages 1158 m
2020/09/24 11:25 EBDT 241125Z AUTO 21013G26KT 9999 FEW038/// 17/07 Q1003 BLU
 
EBAW - Antwerp/Deurne, Belgium
Distance de la station: N 96km
Mise à jour: 24/09/2020 13:20
quelques nuages
quelques nuages
 Wind from SSO
Vent: SSO 28 km/h
Température: 18°C
Point de rosée: 8°C
Humidité: 52%
Baromètre: 1002 hPa
Ciel: quelques nuages
Visibilité: 10 km
Détails du ciel: quelques nuages 1158 m
2020/09/24 11:20 EBAW 241120Z 21015KT 170V240 9999 FEW038 18/08 Q1002 NOSIG
LFAQ - Bray, France
Distance de la station: OSO 119km
Mise à jour: 24/09/2020 13:30
Thunderstorm
Thunderstorm
 Wind from S
Vent: S 31 km/h
Température: 15°C
Point de rosée: 11°C
Humidité: 77%
Baromètre: 1001 hPa
Ciel: Thunderstorm
Visibilité: 10 km
Détails du ciel: principalement nuageux 884 m
principalement nuageux 1067 m
couvert 1829 m
2020/09/24 11:30 LFAQ 241130Z AUTO 19017KT 9999 BKN029/// BKN035/// OVC060/// ///TCU 15/11 Q1001 TEMPO 21020G30KT 3000 SHRA BKN030CB
LFSR - Reims/Champagne, France
Distance de la station: S 120km
Mise à jour: 16/04/2012 09:00
NOT Current
partiellement nuageux
partiellement nuageux
 Wind from N
Vent: N 17 km/h
Température: 4°C
Température ressentie: 0°C
Point de rosée: 0°C
Humidité: 75%
Baromètre: 1022 hPa
Ciel: partiellement nuageux
Visibilité: 10 km
2012/04/16 07:00 LFSR 160700Z AUTO 01009KT 340V070 9999 NSC 04/00 Q1022
 
EHWO - Woensdrecht, Netherlands
Distance de la station: N 122km
Mise à jour: 24/09/2020 13:25
principalement nuageux
principalement nuageux
 Wind from SSO
Vent: SSO 20 km/h, Rafale: 44 km/h
Température: 17°C
Point de rosée: 9°C
Humidité: 59%
Baromètre: 1001 hPa
Ciel: principalement nuageux
Visibilité: 10 km
Détails du ciel: partiellement nuageux 975 m
principalement nuageux 2286 m
principalement nuageux 2530 m
2020/09/24 11:25 EHWO 241125Z AUTO 21011G24KT 150V240 9999 SCT032 BKN075 BKN083 17/09 Q1001 BLU TEMPO FM1230 FEW020CB BKN030
EHBK - Zuid-Limburg, Netherlands
Distance de la station: ENE 123km
Mise à jour: 24/09/2020 13:25
quelques nuages
quelques nuages
 Wind from SSO
Vent: SSO 35 km/h
Température: 18°C
Point de rosée: 7°C
Humidité: 49%
Baromètre: 1003 hPa
Ciel: quelques nuages
Visibilité: 10 km
Détails du ciel: quelques nuages 1250 m
2020/09/24 11:25 EHBK 241125Z AUTO 21019KT 9999 FEW041 18/07 Q1003 NOSIG
EBBL - Kleine-Brogel, Belgium
Distance de la station: NE 124km
Mise à jour: 24/09/2020 13:25
principalement nuageux
principalement nuageux
 Wind from SSO
Vent: SSO 26 km/h
Température: 17°C
Point de rosée: 7°C
Humidité: 52%
Baromètre: 1003 hPa
Ciel: principalement nuageux
Visibilité: 10 km
Détails du ciel: quelques nuages 1219 m
principalement nuageux 7010 m
2020/09/24 11:25 EBBL 241125Z 21014KT 9999 FEW040 BKN230 17/07 Q1003 BLU BLU
 
EBLB - Elsenborn, Belgium
Distance de la station: E 135km
Mise à jour: 24/09/2020 13:25
partiellement nuageux
partiellement nuageux
 Wind from SSO
Vent: SSO 24 km/h
Température: 13°C
Point de rosée: 5°C
Humidité: 59%
Baromètre: 1005 hPa
Ciel: partiellement nuageux
Visibilité: 10 km
Détails du ciel: partiellement nuageux 6096 m
2020/09/24 11:25 EBLB 241125Z AUTO 21013KT 9999 SCT200/// 13/05 Q1005 BLU
EBOS - Oostende Airport, Belgium
Distance de la station: NO 136km
Mise à jour: 24/09/2020 13:20
partiellement nuageux
partiellement nuageux
 Wind from SSO
Vent: SSO 37 km/h
Température: 15°C
Point de rosée: 10°C
Humidité: 72%
Baromètre: 1000 hPa
Ciel: partiellement nuageux
Visibilité: 10 km
Détails du ciel: partiellement nuageux 762 m
2020/09/24 11:20 EBOS 241120Z 21020KT 9999 SCT025 15/10 Q1000 TEMPO 20020G32KT 4000 SHRA
EBFN - Koksijde, Belgium
Distance de la station: NO 140km
Mise à jour: 24/09/2020 13:44
principalement nuageux
principalement nuageux
 Wind from OSO
Vent: OSO 31 km/h
Température: 12°C
Point de rosée: 8°C
Humidité: 77%
Baromètre: 1000 hPa
Ciel: principalement nuageux
Visibilité: 10 km
Détails du ciel: quelques nuages 457 m
partiellement nuageux 610 m
principalement nuageux 2438 m
2020/09/24 11:44 EBFN 241144Z 25017KT 9999 FEW015 SCT020TCU BKN080 12/08 Q1000 WHT BLU TEMPO WHT
 
ETNG - Geilenkirchen, Germany
Distance de la station: ENE 142km
Mise à jour: 24/09/2020 12:50
partiellement nuageux
partiellement nuageux
 Wind from SO
Vent: SO 20 km/h, Rafale: 44 km/h
Température: 17°C
Point de rosée: 7°C
Humidité: 52%
Baromètre: 1004 hPa
Ciel: partiellement nuageux
Visibilité: 10 km
Détails du ciel: quelques nuages 1219 m
partiellement nuageux 7315 m
2020/09/24 10:50 ETNG 241050Z 22011G24KT 9999 FEW040 SCT240 17/07 Q1004 NOSIG
EHGR - Gilze-Rijen, Netherlands
Distance de la station: NNE 143km
Mise à jour: 24/09/2020 13:27
partiellement nuageux
partiellement nuageux
 Wind from S
Vent: S 30 km/h, Rafale: 48 km/h
Température: 17°C
Point de rosée: 7°C
Humidité: 52%
Baromètre: 1001 hPa
Ciel: partiellement nuageux
Visibilité: 10 km
Détails du ciel: partiellement nuageux 1250 m
partiellement nuageux 1463 m
2020/09/24 11:27 EHGR 241127Z AUTO 19016G26KT 160V270 9999 SCT041 SCT048 17/07 Q1001 BLU NOSIG
EHEH - Eindhoven, Netherlands
Distance de la station: NNE 147km
Mise à jour: 24/09/2020 13:25
couvert
couvert
 Wind from SSO
Vent: SSO 33 km/h, Rafale: 56 km/h
Température: 18°C
Point de rosée: 8°C
Humidité: 52%
Baromètre: 1002 hPa
Ciel: couvert
Visibilité: 10 km
Détails du ciel: couvert 7010 m
2020/09/24 11:25 EHEH 241125Z AUTO 20018G30KT 150V230 9999 OVC230 18/08 Q1002 BLU NOPSIG
 
ELLX - Luxembourg, Luxembourg
Distance de la station: ESE 162km
Mise à jour: 24/09/2020 13:20
principalement nuageux
principalement nuageux
 Wind from SSO
Vent: SSO 19 km/h
Température: 15°C
Point de rosée: 8°C
Humidité: 63%
Baromètre: 1006 hPa
Ciel: principalement nuageux
Visibilité: 10 km
Détails du ciel: quelques nuages 853 m
principalement nuageux 1067 m
2020/09/24 11:20 ELLX 241120Z 21010KT 180V250 9999 FEW028 BKN035 15/08 Q1006 NOSIG
EHVK - Volkel, Netherlands
Distance de la station: NE 174km
Mise à jour: 24/09/2020 13:25
couvert
couvert
 Wind from SSO
Vent: SSO 31 km/h
Température: 17°C
Point de rosée: 7°C
Humidité: 52%
Baromètre: 1002 hPa
Ciel: couvert
Visibilité: 10 km
Détails du ciel: quelques nuages 1341 m
couvert 6706 m
2020/09/24 11:25 EHVK 241125Z AUTO 20017KT 160V230 9999 FEW044/// OVC220/// 17/07 Q1002 BLU NOSIG
LFOK - Chalons/Vatry, France
Distance de la station: S 174km
Mise à jour: 24/09/2020 13:30
principalement nuageux
principalement nuageux
 Wind from SO
Vent: SO 28 km/h
Température: 18°C
Point de rosée: 10°C
Humidité: 60%
Baromètre: 1005 hPa
Ciel: principalement nuageux
Visibilité: 10 km
Détails du ciel: quelques nuages 1006 m
principalement nuageux 2195 m
principalement nuageux 6096 m
2020/09/24 11:30 LFOK 241130Z AUTO 22015KT 9999 FEW033 BKN072 BKN200 18/10 Q1005 TEMPO 3000 SHRA BKN030TCU
Script from Saratoga-Weather.org